• Join FlightAware (Why Join?)
  • Login
  • US Flag 
07:27AM EST


 

Airport Tracker/Info


-or-


 

Live Flight TrackerFlight Track Log ✈ SWA1377 ✈ 18-Apr-2013 ✈ KBUF - KBWI

Flight Track Log - Related Links

Times and Time Zones

All times are in EDT time to prevent confusion due to time zone crossing. See the SWA1377 flight status page for this flight to view local times or setup timezone preferences in your user account.

Time Position Orientation Groundspeed Altitude Reporting Facility
EDT Latitude Longitude Course Direction KTS MPH feet Rate Location/Type
01:37PM 42.9000 -78.7667 200° South 176 203 3,000  Level Buffalo TRACON
01:38PM 42.8572 -78.6883 127° Southeast 232 267 5,500 2,280 Climbing Cleveland Center
01:39PM 42.7883 -78.6792 174° South 233 268 7,800 2,580 Climbing Cleveland Center
01:40PM 42.7258 -78.6697 174° South 251 289 10,700 2,580 Climbing Cleveland Center
01:41PM 42.6381 -78.6639 177° South 281 323 13,100 2,700 Climbing Cleveland Center
01:42PM 42.5422 -78.6583 178° South 318 366 16,200 3,120 Climbing Cleveland Center
01:43PM 42.4439 -78.6475 175° South 349 402 19,400 3,240 Climbing Cleveland Center
01:44PM 42.3453 -78.6083 164° South 356 410 22,700 1,800 Climbing Cleveland Center
01:45PM 42.2567 -78.5381 150° Southeast 363 418 23,000 120 Climbing Cleveland Center
01:46PM 42.1594 -78.4628 150° Southeast 380 437 23,000  Level Cleveland Center
01:48PM 42.0484 -78.3784 151° Southeast  Level FlightAware Approximate
01:48PM 41.9647 -78.3128 151° Southeast 403 464 23,000  Level Cleveland Center
01:49PM 41.8672 -78.2381 150° Southeast 403 464 23,000  Level Cleveland Center
01:50PM 41.7678 -78.1639 151° Southeast 410 472 23,000  Level Cleveland Center
01:51PM 41.6819 -78.0558 137° Southeast 416 479 23,000  Level Cleveland Center
01:52PM 41.6236 -77.9781 135° Southeast 426 490 23,000  Level New York Center
01:53PM 41.5503 -77.8786 135° Southeast 410 472 23,000  Level New York Center
01:54PM 41.4650 -77.7697 136° Southeast 410 472 23,000 -180 Level New York Center
01:55PM 41.3819 -77.6589 135° Southeast 415 478 22,700 -660 Descending New York Center
01:56PM 41.3008 -77.5483 134° Southeast 420 483 21,700 -1,020 Descending New York Center
01:57PM 41.2172 -77.4406 136° Southeast 420 483 20,700 -1,020 Descending New York Center
01:58PM 41.1358 -77.3333 135° Southeast 420 483 19,700 -1,020 Descending New York Center
01:59PM 41.0561 -77.2294 135° Southeast 420 483 18,700 -960 Descending New York Center
02:00PM 40.9803 -77.1286 135° Southeast 413 475 17,800 -960 Descending New York Center
02:01PM 40.9022 -77.0308 137° Southeast 397 457 16,800 -960 Descending New York Center
02:02PM 40.8378 -76.9453 135° Southeast 377 434 15,900 -900 Descending New York Center
02:03PM 40.7536 -76.8419 137° Southeast 371 427 15,000 -480 Descending New York Center
02:04PM 40.6769 -76.7528 139° Southeast 371 427 15,000  Level New York Center
02:05PM 40.6119 -76.6733 137° Southeast 371 427 15,000  Level New York Center
02:06PM 40.5339 -76.5658 134° Southeast 371 427 15,000  Level New York Center
02:07PM 40.4681 -76.4647 131° Southeast 363 418 15,000  Level New York Center
02:08PM 40.3742 -76.4650 180° South 321 369 15,000 -180 Level New York Center
02:09PM 40.2900 -76.4828 189° South 331 381 14,700 -1,260 Descending New York Center
02:10PM 40.1933 -76.4992 187° South 331 381 12,500 -1,680 Descending New York Center
02:11PM 40.1094 -76.5111 186° South 326 375 11,400 -780 Descending New York Center
02:12PM 40.0253 -76.5261 188° South 313 360 11,000 -480 Descending New York Center
02:14PM 39.8500 -76.5500 186° South 299 344 10,000 -540 Descending Potomac TRACON
02:16PM 39.7000 -76.6000 194° South 271 312 9,000 -780 Descending Potomac TRACON
02:17PM 39.6500 -76.6500 218° Southwest 258 297 7,700 -1,320 Descending Potomac TRACON
02:18PM 39.5833 -76.7167 218° Southwest 246 283 6,400 -1,380 Descending Potomac TRACON
02:19PM 39.5333 -76.7667 218° Southwest 239 275 5,000 -1,200 Descending Potomac TRACON
02:20PM 39.5000 -76.8333 237° Southwest 236 272 4,000 -540 Descending Potomac TRACON
02:21PM 39.4333 -76.8667 201° Southwest 228 262 4,000  Level Potomac TRACON
02:22PM 39.3833 -76.8833 194° South 231 266 4,000  Level Potomac TRACON
02:23PM 39.3167 -76.9000 191° South 230 265 4,000 -420 Level Potomac TRACON
02:24PM 39.2500 -76.9000 180° South 221 254 3,200 -1,020 Descending Potomac TRACON
02:25PM 39.2000 -76.8667 153° Southeast 204 235 2,000 -660 Descending Potomac TRACON
02:26PM 39.1833 -76.8000 108° East 154 177 1,900 -420 Descending Potomac TRACON
02:27PM 39.1833 -76.7500 90° East 137 158 1,200 -720 Descending Potomac TRACON
02:28PM 39.1833 -76.7000 90° East 132 152 500 -720 Descending Potomac TRACON
02:30PM 39.1667 -76.6667 270° West  Level FlightAware Approximate
02:37PM 39.1754 -76.6683 270° West  Level Estimated